createdAt,value
2019-02-14T00:01:39.187Z,26.63
2019-02-14T00:04:05.226Z,28.63
2019-02-14T00:06:31.245Z,30.47
2019-02-14T00:08:57.367Z,25.00
2019-02-14T00:11:23.434Z,28.30
2019-02-14T00:13:49.415Z,30.80
2019-02-14T00:16:15.358Z,25.27
2019-02-14T00:18:41.583Z,25.07
2019-02-14T00:21:07.555Z,30.87
2019-02-14T00:23:33.429Z,25.87
2019-02-14T00:25:59.379Z,26.23
2019-02-14T00:28:25.491Z,26.87
2019-02-14T00:30:51.571Z,25.40
2019-02-14T00:33:17.663Z,23.97
2019-02-14T00:35:43.536Z,29.70
2019-02-14T00:38:09.465Z,28.10
2019-02-14T00:40:35.415Z,25.90
2019-02-14T00:43:01.387Z,26.93
2019-02-14T00:45:27.435Z,28.20
2019-02-14T00:47:53.717Z,26.73
2019-02-14T00:50:19.704Z,30.17
2019-02-14T00:52:45.851Z,25.43
2019-02-14T00:55:11.779Z,23.70
2019-02-14T00:57:37.897Z,26.27
2019-02-14T01:00:06.092Z,22.37
2019-02-14T01:02:32.227Z,25.50
2019-02-14T01:04:58.258Z,24.37
2019-02-14T01:07:24.223Z,24.37
2019-02-14T01:09:50.200Z,26.63
2019-02-14T01:12:16.401Z,24.07
2019-02-14T01:14:42.469Z,23.57
2019-02-14T01:17:08.616Z,25.40
2019-02-14T01:19:34.692Z,27.77
2019-02-14T01:22:00.676Z,27.47
2019-02-14T01:24:26.808Z,23.63
2019-02-14T01:26:52.778Z,28.60
2019-02-14T01:29:18.787Z,25.37
2019-02-14T01:31:45.185Z,26.23
2019-02-14T01:34:11.227Z,33.97
2019-02-14T01:36:37.102Z,24.40
2019-02-14T01:39:04.669Z,21.80
2019-02-14T01:41:30.583Z,21.80
2019-02-14T01:43:56.554Z,21.27
2019-02-14T01:46:22.524Z,23.87
2019-02-14T01:48:48.586Z,29.27
2019-02-14T01:51:14.461Z,24.10
2019-02-14T01:53:40.464Z,23.07
2019-02-14T01:56:06.437Z,25.77
2019-02-14T01:58:32.586Z,22.70
2019-02-14T02:00:58.603Z,24.20
2019-02-14T02:03:24.526Z,23.47
2019-02-14T02:05:54.588Z,26.33
2019-02-14T02:08:20.685Z,27.17
2019-02-14T02:10:46.841Z,22.00
2019-02-14T02:13:12.774Z,28.13
2019-02-14T02:15:38.817Z,24.30
2019-02-14T02:18:04.897Z,25.17
2019-02-14T02:20:33.392Z,21.73
2019-02-14T02:22:58.871Z,22.87
2019-02-14T02:25:25.004Z,25.77
2019-02-14T02:27:51.032Z,22.87
2019-02-14T02:30:17.033Z,24.80
2019-02-14T02:32:43.057Z,24.87
2019-02-14T02:35:09.184Z,25.03
2019-02-14T02:37:35.161Z,24.17
2019-02-14T02:40:01.298Z,20.17
2019-02-14T02:42:27.401Z,23.00
2019-02-14T02:44:53.392Z,19.77
2019-02-14T02:47:19.415Z,26.80
2019-02-14T02:49:45.452Z,24.67
2019-02-14T02:52:11.490Z,25.47
2019-02-14T02:54:37.520Z,23.40
2019-02-14T02:57:03.654Z,24.37
2019-02-14T02:59:29.691Z,23.97
2019-02-14T03:01:55.625Z,20.80
2019-02-14T03:04:21.545Z,22.67
2019-02-14T03:06:47.666Z,20.20
2019-02-14T03:09:13.708Z,23.10
2019-02-14T03:11:39.734Z,27.57
2019-02-14T03:14:07.728Z,23.63
2019-02-14T03:16:33.611Z,20.63
2019-02-14T03:18:59.556Z,22.63
2019-02-14T03:21:25.659Z,22.97
2019-02-14T03:23:51.637Z,20.90
2019-02-14T03:26:17.839Z,21.43
2019-02-14T03:28:43.925Z,24.00
2019-02-14T03:31:10.059Z,25.30
2019-02-14T03:33:36.057Z,24.07
2019-02-14T03:36:02.042Z,22.00
2019-02-14T03:38:28.365Z,22.30
2019-02-14T03:40:54.575Z,20.83
2019-02-14T03:43:20.632Z,19.67
2019-02-14T03:45:46.737Z,26.50
2019-02-14T03:48:12.893Z,21.97
2019-02-14T03:50:38.932Z,22.03
2019-02-14T03:53:05.029Z,19.97
2019-02-14T03:55:31.111Z,24.23
2019-02-14T03:57:57.082Z,22.07
2019-02-14T04:00:23.121Z,22.87
2019-02-14T04:02:49.247Z,19.87
2019-02-14T04:05:15.389Z,21.60
2019-02-14T04:07:41.350Z,21.43
2019-02-14T04:10:12.290Z,20.57
2019-02-14T04:12:38.480Z,22.67
2019-02-14T04:15:08.190Z,23.20
2019-02-14T04:17:34.247Z,22.00
2019-02-14T04:20:00.318Z,18.90
2019-02-14T04:22:26.397Z,22.20
2019-02-14T04:24:52.379Z,21.40
2019-02-14T04:27:18.339Z,23.20
2019-02-14T04:29:44.381Z,17.53
2019-02-14T04:32:10.295Z,18.03
2019-02-14T04:34:36.368Z,23.00
2019-02-14T04:37:02.413Z,20.60
2019-02-14T04:39:28.508Z,23.63
2019-02-14T04:41:54.533Z,22.73
2019-02-14T04:44:20.480Z,23.00
2019-02-14T04:46:46.432Z,25.27
2019-02-14T04:49:12.479Z,20.53
2019-02-14T04:51:38.504Z,24.00
2019-02-14T04:54:04.455Z,22.47
2019-02-14T04:56:30.527Z,20.17
2019-02-14T04:58:56.583Z,21.67
2019-02-14T05:01:22.534Z,22.87
2019-02-14T05:03:48.449Z,23.10
2019-02-14T05:06:14.470Z,23.87
2019-02-14T05:08:40.446Z,22.97
2019-02-14T05:11:06.337Z,23.03
2019-02-14T05:13:32.294Z,23.40
2019-02-14T05:15:58.231Z,24.83
2019-02-14T05:18:24.279Z,23.10
2019-02-14T05:20:50.189Z,22.93
2019-02-14T05:23:16.159Z,23.83
2019-02-14T05:25:42.146Z,22.67
2019-02-14T05:28:08.059Z,21.07
2019-02-14T05:30:34.126Z,22.30
2019-02-14T05:33:00.272Z,21.97
2019-02-14T05:35:26.383Z,23.50
2019-02-14T05:37:52.419Z,21.90
2019-02-14T05:40:18.440Z,21.87
2019-02-14T05:42:44.573Z,22.27
2019-02-14T05:45:12.008Z,22.50
2019-02-14T05:47:37.890Z,24.20
2019-02-14T05:50:06.749Z,25.23
2019-02-14T05:52:32.689Z,23.03
2019-02-14T05:55:00.627Z,26.57
2019-02-14T05:57:27.408Z,18.50
2019-02-14T05:59:53.554Z,25.90
2019-02-14T06:02:19.584Z,22.13
2019-02-14T06:04:45.499Z,27.27
2019-02-14T06:07:11.463Z,23.03
2019-02-14T06:09:41.328Z,26.47
2019-02-14T06:12:07.247Z,24.80
2019-02-14T06:14:33.224Z,27.43
2019-02-14T06:16:59.139Z,25.90
2019-02-14T06:19:25.148Z,24.27
2019-02-14T06:21:51.189Z,23.17
2019-02-14T06:24:17.207Z,25.83
2019-02-14T06:26:43.298Z,29.07
2019-02-14T06:29:09.219Z,28.87
2019-02-14T06:31:35.213Z,26.87
2019-02-14T06:34:01.199Z,29.23
2019-02-14T06:36:27.220Z,27.43
2019-02-14T06:38:53.371Z,25.60
2019-02-14T06:41:19.358Z,22.23
2019-02-14T06:43:45.239Z,25.00
2019-02-14T06:46:11.260Z,26.53
2019-02-14T06:48:37.205Z,26.00
2019-02-14T06:51:03.280Z,27.10
2019-02-14T06:53:29.401Z,27.83
2019-02-14T06:55:55.274Z,25.67
2019-02-14T06:58:21.632Z,31.87
2019-02-14T07:00:47.708Z,28.53
2019-02-14T07:03:13.655Z,27.90
2019-02-14T07:05:39.752Z,27.13
2019-02-14T07:08:05.698Z,29.07
2019-02-14T07:10:31.921Z,36.47
2019-02-14T07:12:57.903Z,25.60
2019-02-14T07:15:23.908Z,28.70
2019-02-14T07:17:49.870Z,28.10
2019-02-14T07:20:16.254Z,32.20
2019-02-14T07:22:42.260Z,27.53
2019-02-14T07:25:09.929Z,24.83
2019-02-14T07:27:35.871Z,26.17
2019-02-14T07:30:07.559Z,33.53
2019-02-14T07:32:33.502Z,23.53
2019-02-14T07:34:59.480Z,27.20
2019-02-14T07:37:27.065Z,33.33
2019-02-14T07:39:53.205Z,26.23
2019-02-14T07:42:19.206Z,31.93
2019-02-14T07:44:45.309Z,28.73
2019-02-14T07:47:11.268Z,28.47
2019-02-14T07:49:37.156Z,27.00
2019-02-14T07:52:03.287Z,27.30
2019-02-14T07:54:29.164Z,25.87
2019-02-14T07:56:55.150Z,31.27
2019-02-14T07:59:21.100Z,29.77
2019-02-14T08:01:47.270Z,29.60
2019-02-14T08:04:13.215Z,34.77
2019-02-14T08:06:39.154Z,35.90
2019-02-14T08:09:05.515Z,39.37
2019-02-14T08:11:31.663Z,37.10
2019-02-14T08:13:57.577Z,37.53
2019-02-14T08:16:23.595Z,40.37
2019-02-14T08:18:49.631Z,31.77
2019-02-14T08:21:15.702Z,36.23
2019-02-14T08:23:42.149Z,37.60
2019-02-14T08:26:10.766Z,31.27
2019-02-14T08:28:36.227Z,33.67
2019-02-14T08:31:02.328Z,33.50
2019-02-14T08:33:28.282Z,29.17
2019-02-14T08:35:54.324Z,33.20
2019-02-14T08:38:20.187Z,35.00
2019-02-14T08:40:46.194Z,34.10
2019-02-14T08:43:12.029Z,38.07
2019-02-14T08:45:37.950Z,32.30
2019-02-14T08:48:04.291Z,30.70
2019-02-14T08:50:30.307Z,28.03
2019-02-14T08:52:56.301Z,29.80
2019-02-14T08:55:22.424Z,28.37
2019-02-14T08:57:48.387Z,29.63
2019-02-14T09:00:15.556Z,26.27
2019-02-14T09:02:41.500Z,27.47
2019-02-14T09:05:07.958Z,25.03
2019-02-14T09:07:34.190Z,24.53
2019-02-14T09:10:02.327Z,30.07
2019-02-14T09:12:28.261Z,29.93
2019-02-14T09:14:54.265Z,31.07
2019-02-14T09:17:20.301Z,26.63
2019-02-14T09:19:46.343Z,31.03
2019-02-14T09:22:12.387Z,29.17
2019-02-14T09:24:38.341Z,31.17
2019-02-14T09:27:04.224Z,29.07
2019-02-14T09:29:32.255Z,30.07
2019-02-14T09:31:58.331Z,31.53
2019-02-14T09:34:27.291Z,30.20
2019-02-14T09:36:53.252Z,31.70
2019-02-14T09:39:19.118Z,37.27
2019-02-14T09:41:45.069Z,32.90
2019-02-14T09:44:11.043Z,28.13
2019-02-14T09:46:36.972Z,35.83
2019-02-14T09:49:05.914Z,25.57
2019-02-14T09:51:31.996Z,24.60
2019-02-14T09:53:58.034Z,26.10
2019-02-14T09:56:24.147Z,28.17
2019-02-14T09:58:50.302Z,34.30
2019-02-14T10:01:16.302Z,23.93
2019-02-14T10:03:42.369Z,36.57
2019-02-14T10:06:08.518Z,29.27
2019-02-14T10:08:34.515Z,33.83
2019-02-14T10:11:00.524Z,32.03
2019-02-14T10:13:30.193Z,25.47
2019-02-14T10:15:56.096Z,30.20
2019-02-14T10:18:22.149Z,32.43
2019-02-14T10:20:48.248Z,25.80
2019-02-14T10:23:14.334Z,27.63
2019-02-14T10:25:40.327Z,32.80
2019-02-14T10:28:06.272Z,24.60
2019-02-14T10:30:32.283Z,33.47
2019-02-14T10:32:58.306Z,31.40
2019-02-14T10:35:24.159Z,34.47
2019-02-14T10:37:50.109Z,30.30
2019-02-14T10:40:16.389Z,36.40
2019-02-14T10:42:42.357Z,31.97
2019-02-14T10:45:13.591Z,33.93
2019-02-14T10:47:39.670Z,32.10
2019-02-14T10:50:07.930Z,32.33
2019-02-14T10:52:34.143Z,29.57
2019-02-14T10:55:00.056Z,33.13
2019-02-14T10:57:26.087Z,31.70
2019-02-14T10:59:52.238Z,33.67
2019-02-14T11:02:20.738Z,32.33
2019-02-14T11:04:51.646Z,30.97
2019-02-14T11:07:21.104Z,39.47
2019-02-14T11:09:49.140Z,34.43
2019-02-14T11:12:15.135Z,34.07
2019-02-14T11:14:41.482Z,33.17
2019-02-14T11:17:07.603Z,35.13
2019-02-14T11:19:33.521Z,31.70
2019-02-14T11:21:59.445Z,39.77
2019-02-14T11:24:25.444Z,32.03
2019-02-14T11:26:51.490Z,32.13
2019-02-14T11:29:17.510Z,32.33
2019-02-14T11:31:43.498Z,33.93
2019-02-14T11:34:09.483Z,32.00
2019-02-14T11:36:35.432Z,31.43
2019-02-14T11:39:01.401Z,30.47
2019-02-14T11:41:27.371Z,27.67
2019-02-14T11:43:53.405Z,28.03
2019-02-14T11:46:19.521Z,28.03
2019-02-14T11:48:45.512Z,28.70
2019-02-14T11:51:11.489Z,26.97
2019-02-14T11:53:37.521Z,30.23
2019-02-14T11:56:03.517Z,25.77
2019-02-14T11:58:29.569Z,26.83
2019-02-14T12:00:55.744Z,32.53
2019-02-14T12:03:21.714Z,27.77
2019-02-14T12:05:48.119Z,26.83
2019-02-14T12:08:14.129Z,25.30
2019-02-14T12:10:40.015Z,27.67
2019-02-14T12:13:06.030Z,31.20
2019-02-14T12:15:36.107Z,31.23
2019-02-14T12:18:02.208Z,26.20
2019-02-14T12:20:28.480Z,29.33
2019-02-14T12:22:54.570Z,30.37
2019-02-14T12:25:28.543Z,32.00
2019-02-14T12:27:54.597Z,28.23
2019-02-14T12:30:20.570Z,27.93
2019-02-14T12:32:46.490Z,29.27
2019-02-14T12:35:12.648Z,32.20
2019-02-14T12:37:38.680Z,30.20
2019-02-14T12:40:07.730Z,32.90
2019-02-14T12:42:33.641Z,28.63
2019-02-14T12:44:59.516Z,31.03
2019-02-14T12:47:25.619Z,30.27
2019-02-14T12:49:51.516Z,29.83
2019-02-14T12:52:17.611Z,28.43
2019-02-14T12:54:43.547Z,32.33
2019-02-14T12:57:09.596Z,27.57
2019-02-14T12:59:35.571Z,28.90
2019-02-14T13:02:01.658Z,28.80
2019-02-14T13:04:27.608Z,27.27
2019-02-14T13:06:53.682Z,29.27
2019-02-14T13:09:20.448Z,34.20
2019-02-14T13:11:46.427Z,30.10
2019-02-14T13:14:12.361Z,27.98
2019-02-14T13:16:42.592Z,36.55
2019-02-14T13:19:10.044Z,30.23
2019-02-14T13:21:36.038Z,33.70
2019-02-14T13:24:01.940Z,29.45
2019-02-14T13:26:27.949Z,30.23
2019-02-14T13:28:54.016Z,35.25
2019-02-14T13:31:20.027Z,30.85
2019-02-14T13:33:46.026Z,33.60
2019-02-14T13:36:12.010Z,29.65
2019-02-14T13:38:38.027Z,32.93
2019-02-14T13:41:04.088Z,33.38
2019-02-14T13:43:29.948Z,33.35
2019-02-14T13:45:55.815Z,32.65
2019-02-14T13:48:21.790Z,35.03
2019-02-14T13:50:47.843Z,36.08
2019-02-14T13:53:13.841Z,31.70
2019-02-14T13:55:40.020Z,33.83
2019-02-14T13:58:05.883Z,37.30
2019-02-14T14:00:31.901Z,32.05
2019-02-14T14:02:57.903Z,31.20
2019-02-14T14:05:23.786Z,34.38
2019-02-14T14:07:49.905Z,32.08
2019-02-14T14:10:16.027Z,34.53
2019-02-14T14:12:42.535Z,33.35
2019-02-14T14:15:08.775Z,37.23
2019-02-14T14:17:35.437Z,35.48
2019-02-14T14:20:01.631Z,39.05
2019-02-14T14:22:27.516Z,34.95
2019-02-14T14:24:53.425Z,34.35
2019-02-14T14:27:19.466Z,40.83
2019-02-14T14:29:45.345Z,36.85
2019-02-14T14:32:11.309Z,35.83
2019-02-14T14:34:37.230Z,35.23
2019-02-14T14:37:03.131Z,40.58
2019-02-14T14:39:29.010Z,35.68
2019-02-14T14:41:55.065Z,36.85
2019-02-14T14:44:26.065Z,44.37
2019-02-14T14:46:51.998Z,35.43
2019-02-14T14:49:18.115Z,34.35
2019-02-14T14:51:43.942Z,35.43
2019-02-14T14:54:09.931Z,35.85
2019-02-14T14:56:36.080Z,36.68
2019-02-14T14:59:02.188Z,39.58
2019-02-14T15:01:28.078Z,35.28
2019-02-14T15:03:53.986Z,40.20
2019-02-14T15:06:20.017Z,37.05
2019-02-14T15:08:46.056Z,38.28
2019-02-14T15:11:11.951Z,38.35
2019-02-14T15:13:37.956Z,38.10
2019-02-14T15:16:05.913Z,42.27
2019-02-14T15:18:31.898Z,44.70
2019-02-14T15:20:57.817Z,36.35
2019-02-14T15:23:23.713Z,42.03
2019-02-14T15:25:49.953Z,42.58
2019-02-14T15:28:15.886Z,41.37
2019-02-14T15:30:41.959Z,43.23
2019-02-14T15:33:08.014Z,47.93
2019-02-14T15:35:34.043Z,45.37
2019-02-14T15:38:00.019Z,50.73
2019-02-14T15:40:25.942Z,48.80
2019-02-14T15:42:52.121Z,45.17
2019-02-14T15:45:18.373Z,47.40
2019-02-14T15:47:44.308Z,48.93
2019-02-14T15:50:10.333Z,52.50
2019-02-14T15:52:36.429Z,54.10
2019-02-14T15:55:02.736Z,45.50
2019-02-14T15:57:28.790Z,49.50
2019-02-14T15:59:54.695Z,48.70
2019-02-14T16:02:20.832Z,49.13
2019-02-14T16:04:46.775Z,47.30
2019-02-14T16:07:13.236Z,51.93
2019-02-14T16:09:41.250Z,47.57
2019-02-14T16:12:07.203Z,48.97
2019-02-14T16:14:33.158Z,48.17
2019-02-14T16:16:59.226Z,52.10
2019-02-14T16:19:25.117Z,48.67
2019-02-14T16:21:51.904Z,50.40
2019-02-14T16:24:19.155Z,50.27
2019-02-14T16:26:45.093Z,49.73
2019-02-14T16:29:11.170Z,57.40
2019-02-14T16:31:37.293Z,57.83
2019-02-14T16:34:03.170Z,54.80
2019-02-14T16:36:29.304Z,60.80
2019-02-14T16:38:56.472Z,51.70
2019-02-14T16:41:23.052Z,51.50
2019-02-14T16:43:48.949Z,49.50
2019-02-14T16:46:14.930Z,51.67
2019-02-14T16:48:41.007Z,51.73
2019-02-14T16:51:06.928Z,53.20
2019-02-14T16:53:32.832Z,58.50
2019-02-14T16:56:02.120Z,56.77
2019-02-14T16:58:26.827Z,52.17
2019-02-14T17:00:52.836Z,57.70
2019-02-14T17:03:19.269Z,55.13
2019-02-14T17:05:45.299Z,49.77
2019-02-14T17:08:11.257Z,53.45
2019-02-14T17:10:37.426Z,49.57
2019-02-14T17:13:03.391Z,55.57
2019-02-14T17:15:29.255Z,54.63
2019-02-14T17:17:55.194Z,48.37
2019-02-14T17:20:24.876Z,51.40
2019-02-14T17:22:50.810Z,51.73
2019-02-14T17:25:17.371Z,49.87
2019-02-14T17:27:43.422Z,53.63
2019-02-14T17:30:09.535Z,49.97
2019-02-14T17:32:35.552Z,49.43
2019-02-14T17:35:01.867Z,48.60
2019-02-14T17:37:27.955Z,52.57
2019-02-14T17:39:53.823Z,52.47
2019-02-14T17:42:19.701Z,60.87
2019-02-14T17:44:45.684Z,59.77
2019-02-14T17:47:11.706Z,59.47
2019-02-14T17:49:37.738Z,64.40
2019-02-14T17:52:03.614Z,55.00
2019-02-14T17:54:29.600Z,59.40
2019-02-14T17:56:55.633Z,56.23
2019-02-14T17:59:21.712Z,53.07
2019-02-14T18:01:47.579Z,60.30
2019-02-14T18:04:13.483Z,59.30
2019-02-14T18:06:39.462Z,53.17
2019-02-14T18:09:05.520Z,57.93
2019-02-14T18:11:31.471Z,63.33
2019-02-14T18:13:57.438Z,56.00
2019-02-14T18:16:23.393Z,56.97
2019-02-14T18:18:49.258Z,52.50
2019-02-14T18:21:15.296Z,63.93
2019-02-14T18:23:41.259Z,55.10
2019-02-14T18:26:07.351Z,60.80
2019-02-14T18:28:33.339Z,62.07
2019-02-14T18:30:59.308Z,55.00
2019-02-14T18:33:25.441Z,58.70
2019-02-14T18:35:51.306Z,65.10
2019-02-14T18:38:17.232Z,63.17
2019-02-14T18:40:45.136Z,71.60
2019-02-14T18:43:11.063Z,59.43
2019-02-14T18:45:37.087Z,66.30
2019-02-14T18:48:03.186Z,61.13
2019-02-14T18:50:29.163Z,67.53
2019-02-14T18:52:55.187Z,72.70
2019-02-14T18:55:21.267Z,78.73
2019-02-14T18:57:47.163Z,71.87
2019-02-14T19:00:17.398Z,65.53
2019-02-14T19:02:43.596Z,65.77
2019-02-14T19:05:10.291Z,63.67
2019-02-14T19:07:36.238Z,63.77
2019-02-14T19:10:05.417Z,63.30
2019-02-14T19:12:31.266Z,61.10
2019-02-14T19:14:57.231Z,74.77
2019-02-14T19:17:23.192Z,65.13
2019-02-14T19:19:49.090Z,60.93
2019-02-14T19:22:15.109Z,56.40
2019-02-14T19:24:40.983Z,64.87
2019-02-14T19:27:07.173Z,59.70
2019-02-14T19:29:33.211Z,64.63
2019-02-14T19:31:59.207Z,63.03
2019-02-14T19:34:25.059Z,73.77
2019-02-14T19:36:51.135Z,63.10
2019-02-14T19:39:17.030Z,66.37
2019-02-14T19:41:43.122Z,64.73
2019-02-14T19:44:09.039Z,67.53
2019-02-14T19:46:34.910Z,66.67
2019-02-14T19:49:00.924Z,62.97
2019-02-14T19:51:27.263Z,63.03
2019-02-14T19:53:53.168Z,64.97
2019-02-14T19:56:19.063Z,74.27
2019-02-14T19:58:44.968Z,67.20
2019-02-14T20:01:10.969Z,64.47
2019-02-14T20:03:36.879Z,63.77
2019-02-14T20:06:03.017Z,57.73
2019-02-14T20:08:28.884Z,63.70
2019-02-14T20:10:54.881Z,72.97
2019-02-14T20:13:21.229Z,59.53
2019-02-14T20:15:47.581Z,62.30
2019-02-14T20:18:13.886Z,67.93
2019-02-14T20:20:40.315Z,63.30
2019-02-14T20:23:10.065Z,66.60
2019-02-14T20:25:36.519Z,70.00
2019-02-14T20:28:02.998Z,70.93
2019-02-14T20:30:29.547Z,60.63
2019-02-14T20:33:04.440Z,65.77
2019-02-14T20:35:25.218Z,63.17
2019-02-14T20:37:52.185Z,64.90
2019-02-14T20:40:19.419Z,64.70
2019-02-14T20:42:46.715Z,63.90
2019-02-14T20:45:14.506Z,62.13
2019-02-14T20:47:41.720Z,61.53
2019-02-14T20:50:11.041Z,62.60
2019-02-14T20:52:37.817Z,61.07
2019-02-14T20:55:07.538Z,61.83
2019-02-14T20:57:33.891Z,55.00
2019-02-14T20:59:59.912Z,62.67
2019-02-14T21:02:25.760Z,60.20
2019-02-14T21:04:51.764Z,61.30
2019-02-14T21:07:17.767Z,65.80
2019-02-14T21:09:43.753Z,61.97
2019-02-14T21:12:09.766Z,63.13
2019-02-14T21:14:35.931Z,65.33
2019-02-14T21:17:01.796Z,60.27
2019-02-14T21:19:27.823Z,62.63
2019-02-14T21:21:53.724Z,57.83
2019-02-14T21:24:23.845Z,53.47
2019-02-14T21:26:49.908Z,57.63
2019-02-14T21:29:16.094Z,56.03
2019-02-14T21:31:42.015Z,57.60
2019-02-14T21:34:08.050Z,55.67
2019-02-14T21:36:34.757Z,59.30
2019-02-14T21:39:00.788Z,61.23
2019-02-14T21:41:26.786Z,64.10
2019-02-14T21:43:52.773Z,58.47
2019-02-14T21:46:18.697Z,61.50
2019-02-14T21:48:44.700Z,59.47
2019-02-14T21:51:10.849Z,62.27
2019-02-14T21:53:36.919Z,62.10
2019-02-14T21:56:03.044Z,74.40
2019-02-14T21:58:28.973Z,71.90
2019-02-14T22:00:54.946Z,66.67
2019-02-14T22:03:20.819Z,67.93
2019-02-14T22:05:46.844Z,73.27
2019-02-14T22:08:12.850Z,66.07
2019-02-14T22:10:38.849Z,65.97
2019-02-14T22:13:04.895Z,62.87
2019-02-14T22:15:30.891Z,67.10
2019-02-14T22:17:56.874Z,60.87
2019-02-14T22:20:22.962Z,56.07
2019-02-14T22:22:48.887Z,64.23
2019-02-14T22:25:14.963Z,60.57
2019-02-14T22:27:41.089Z,60.63
2019-02-14T22:30:10.914Z,58.83
2019-02-14T22:32:37.033Z,70.27
2019-02-14T22:35:03.261Z,62.07
2019-02-14T22:37:29.371Z,56.77
2019-02-14T22:39:55.268Z,56.53
2019-02-14T22:42:21.295Z,55.03
2019-02-14T22:44:47.274Z,52.47
2019-02-14T22:47:13.162Z,54.00
2019-02-14T22:49:39.075Z,58.47
2019-02-14T22:52:05.115Z,57.67
2019-02-14T22:54:31.297Z,50.27
2019-02-14T22:56:57.377Z,54.47
2019-02-14T22:59:23.586Z,63.63
2019-02-14T23:01:49.812Z,52.70
2019-02-14T23:04:15.906Z,53.40
2019-02-14T23:06:42.039Z,56.07
2019-02-14T23:09:08.783Z,57.97
2019-02-14T23:11:34.776Z,49.57
2019-02-14T23:14:00.839Z,49.37
2019-02-14T23:16:26.784Z,50.97
2019-02-14T23:18:52.809Z,51.63
2019-02-14T23:21:18.821Z,46.83
2019-02-14T23:23:44.725Z,51.33
2019-02-14T23:26:10.859Z,46.57
2019-02-14T23:28:36.768Z,49.67
2019-02-14T23:31:03.046Z,51.30
2019-02-14T23:33:29.040Z,50.53
2019-02-14T23:35:55.034Z,45.50
2019-02-14T23:38:21.019Z,53.13
2019-02-14T23:40:47.051Z,49.43
2019-02-14T23:43:12.929Z,46.33
2019-02-14T23:45:38.799Z,51.27
2019-02-14T23:48:04.924Z,48.53
2019-02-14T23:50:30.916Z,45.27
2019-02-14T23:52:56.885Z,50.00
2019-02-14T23:55:22.915Z,54.57
2019-02-14T23:57:48.820Z,45.90
